Flight Track Log - Related Links

Times and Time Zones

All times are in EDT time to prevent confusion due to time zone crossing. See the SWA378 flight status page for this flight to view local times or setup timezone preferences in your user account.

Time Position Orientation Groundspeed Altitude Reporting Facility
EDT Latitude Longitude Course Direction KTS MPH feet Rate Location/Type
Fri 11:11:52 AM 37.3833 -121.9500 332° Northwest 165 190 1,200  Level Northern Cal TRACON
Fri 11:12:52 AM 37.4333 -121.9833 332° Northwest 216 249 3,100 1,304 Climbing Northern Cal TRACON
Fri 11:14:56 AM 37.3808 -121.8442 115° Southeast 250 288 5,200 1,622 Climbing Oakland Center
Fri 11:15:57 AM 37.3219 -121.7808 139° Southeast 262 302 8,100 2,780 Climbing Oakland Center
Fri 11:16:59 AM 37.2631 -121.7125 137° Southeast 286 329 10,900 2,439 Climbing Oakland Center
Fri 11:18:00 AM 37.1933 -121.6344 138° Southeast 337 388 13,100 2,607 Climbing Oakland Center
Fri 11:19:01 AM 37.1231 -121.5536 137° Southeast 343 395 16,200 2,754 Climbing Oakland Center
Fri 11:20:02 AM 37.0400 -121.4647 139° Southeast 348 400 18,700 2,195 Climbing Oakland Center
Fri 11:21:04 AM 36.9614 -121.3783 139° Southeast 375 432 20,700 2,000 Climbing Oakland Center
Fri 11:22:05 AM 36.8808 -121.2886 138° Southeast 385 443 22,800 1,967 Climbing Oakland Center
Fri 11:23:06 AM 36.7944 -121.1989 140° Southeast 392 451 24,700 1,820 Climbing Oakland Center
Fri 11:24:07 AM 36.7089 -121.1044 138° Southeast 408 470 26,500 1,659 Climbing Oakland Center
Fri 11:25:09 AM 36.6214 -121.0111 139° Southeast 414 476 28,100 1,512 Climbing Oakland Center
Fri 11:26:10 AM 36.5317 -120.9136 139° Southeast 427 491 29,600 1,623 Climbing Oakland Center
Fri 11:27:11 AM 36.4406 -120.8164 139° Southeast 431 496 31,400 1,610 Climbing Oakland Center
Fri 11:28:13 AM 36.3700 -120.7019 127° Southeast 417 480 32,900 1,463 Climbing Oakland Center
Fri 11:29:14 AM 36.2828 -120.5656 128° Southeast 423 487 34,400 1,426 Climbing Oakland Center
Fri 11:30:15 AM 36.2103 -120.4528 129° Southeast 419 482 35,800 1,279 Climbing Oakland Center
Fri 11:31:16 AM 36.1389 -120.3408 128° Southeast 415 478 37,000 585 Climbing Oakland Center
Fri 11:32:18 AM 36.0678 -120.2311 129° Southeast 409 471 37,000  Level Oakland Center
Fri 11:33:19 AM 35.9964 -120.1206 129° Southeast 410 472 37,000  Level Oakland Center
Fri 11:34:20 AM 35.9253 -120.0089 128° Southeast 411 473 37,000  Level Oakland Center
Fri 11:35:22 AM 35.8517 -119.8958 129° Southeast 417 480 37,000  Level Oakland Center
Fri 11:36:23 AM 35.7786 -119.7839 129° Southeast 419 482 37,000  Level Oakland Center
Fri 11:37:24 AM 35.7022 -119.6675 129° Southeast 430 495 37,000  Level Oakland Center
Fri 11:38:26 AM 35.6267 -119.5511 129° Southeast 434 499 37,000  Level Oakland Center
Fri 11:39:36 AM 35.5361 -119.4108 128° Southeast 437 503 37,000  Level Los Angeles Center
Fri 11:40:38 AM 35.4583 -119.2933 129° Southeast 440 506 37,000  Level Los Angeles Center
Fri 11:41:40 AM 35.3653 -119.1514 129° Southeast 443 510 37,000  Level Los Angeles Center
Fri 11:42:43 AM 35.2869 -119.0322 129° Southeast 446 513 37,000  Level Los Angeles Center
Fri 11:43:44 AM 35.2078 -118.9139 129° Southeast 449 517 37,000 -242 Level Los Angeles Center
Fri 11:44:47 AM 35.1269 -118.7964 130° Southeast 450 518 36,500 -1,728 Descending Los Angeles Center
Fri 11:45:49 AM 35.0475 -118.6769 129° Southeast 453 521 33,400 -2,806 Descending Los Angeles Center
Fri 11:46:51 AM 34.9706 -118.5628 129° Southeast 442 509 30,700 -2,226 Descending Los Angeles Center
Fri 11:47:53 AM 34.8989 -118.4569 130° Southeast 413 475 28,800 -2,226 Descending Los Angeles Center
Fri 11:48:55 AM 34.8111 -118.3272 129° Southeast 412 474 26,100 -2,304 Descending Los Angeles Center
Fri 11:49:58 AM 34.7422 -118.2275 130° Southeast 397 457 24,000 -1,344 Descending Los Angeles Center
Fri 11:51:00 AM 34.6767 -118.1328 130° Southeast 377 434 23,300 -919 Descending Los Angeles Center
Fri 11:52:02 AM 34.6167 -118.0353 127° Southeast 367 422 22,100 -1,113 Descending Los Angeles Center
Fri 11:53:04 AM 34.5692 -117.9292 119° Southeast 363 418 21,000 -1,500 Descending Los Angeles Center
Fri 11:54:06 AM 34.5117 -117.8042 119° Southeast 356 410 19,000 -1,742 Descending Los Angeles Center
Fri 11:55:08 AM 34.4658 -117.7053 119° Southeast 341 392 17,400 -1,210 Descending Los Angeles Center
Fri 11:56:10 AM 34.4233 -117.6122 119° Southeast 319 367 16,500 -1,161 Descending Los Angeles Center
Fri 11:57:12 AM 34.3797 -117.5150 119° Southeast 292 336 15,000 -1,584 Descending Los Angeles Center
Fri 11:58:15 AM 34.3417 -117.4322 119° Southeast 283 326 13,200 -1,824 Descending Los Angeles Center
Fri 11:59:17 AM 34.3028 -117.3497 120° Southeast 280 322 11,200 -1,839 Descending Los Angeles Center
Fri 12:00:19 PM 34.2447 -117.2881 139° Southeast 284 327 9,400 -1,548 Descending Los Angeles Center
Fri 12:01:21 PM 34.1739 -117.2472 154° Southeast 280 322 8,000 -1,113 Descending Los Angeles Center
Fri 12:02:23 PM 34.1067 -117.2344 171° South 247 284 7,100 -1,443 Descending Los Angeles Center
Fri 12:02:40 PM 34.0833 -117.2500 209° Southwest 257 296 6,100 -2,096 Descending Southern California TRACON
Fri 12:03:46 PM 34.0667 -117.3333 256° West 267 307 4,200 -1,050 Descending Southern California TRACON
Fri 12:04:40 PM 34.0500 -117.4167 256° West 220 253 4,000 -842 Descending Southern California TRACON
Fri 12:05:40 PM 34.0500 -117.4833 270° West 199 229 2,600 -1,100 Descending Southern California TRACON
Fri 12:06:40 PM 34.0500 -117.5333 270° West 146 168 1,800 -545 Descending Southern California TRACON
Fri 12:08:36 PM 34.0581 -117.6219 276° West 159 183 1,000 -414 Descending Los Angeles Center
Fri 12:10:00 PM 34.0500 -117.6000 270° West  Level FlightAware Approximate

Login

Don't have an account? Register now (free) for customized features, flight alerts, and more!